Time;durP1;ratioP1;P1;durP2;ratioP2;P2;SDS_P1;SDS_P2;PMS_P1;PMS_P2;Temp;Humidity;BMP_temperature;BMP_pressure;BME280_temperature;BME280_humidity;BME280_pressure;Samples;Min_cycle;Max_cycle;Signal;HPM_P1;HPM_P2
2024/02/15 00:01:39;;;;;;;;;13.25;9.00;;;;;14.72;78.33;101223.66;5038628;28;47180;-67
2024/02/15 00:04:05;;;;;;;;;10.50;10.50;;;;;14.66;78.40;101222.09;5040045;28;63178;-67
2024/02/15 00:06:31;;;;;;;;;11.25;8.50;;;;;14.66;77.98;101234.41;5038660;28;45539;-67
2024/02/15 00:08:56;;;;;;;;;9.25;7.50;;;;;14.64;78.37;101237.06;5037860;28;45355;-67
2024/02/15 00:11:21;;;;;;;;;9.00;8.00;;;;;14.61;78.31;101222.25;5041229;28;68410;-66
2024/02/15 00:13:47;;;;;;;;;12.00;9.25;;;;;14.58;78.54;101232.03;5040176;28;55667;-67
2024/02/15 00:16:14;;;;;;;;;10.00;9.00;;;;;14.56;78.61;101232.06;5042464;28;64166;-66
2024/02/15 00:18:40;;;;;;;;;8.00;8.00;;;;;14.54;78.68;101223.38;5037392;28;46087;-67
2024/02/15 00:21:05;;;;;;;;;11.50;8.50;;;;;14.51;78.79;101218.19;5041626;28;45462;-66
2024/02/15 00:23:32;;;;;;;;;9.00;8.00;;;;;14.53;78.74;101224.25;5038521;28;71169;-66
2024/02/15 00:25:57;;;;;;;;;9.75;8.25;;;;;14.52;78.67;101226.94;5046214;28;45596;-68
2024/02/15 00:28:23;;;;;;;;;8.00;6.50;;;;;14.52;78.46;101216.41;5043465;28;45517;-67
2024/02/15 00:30:49;;;;;;;;;14.50;7.75;;;;;14.50;78.81;101220.88;5068192;27;45536;-67
2024/02/15 00:33:14;;;;;;;;;13.75;8.75;;;;;14.48;78.75;101213.03;5042090;28;45511;-68
2024/02/15 00:35:40;;;;;;;;;9.00;6.75;;;;;14.46;79.02;101209.59;5039121;28;45564;-67
2024/02/15 00:38:06;;;;;;;;;10.00;9.50;;;;;14.44;78.97;101199.13;5073309;27;45785;-67
2024/02/15 00:40:32;;;;;;;;;10.50;8.75;;;;;14.43;79.07;101204.47;5034076;28;47082;-68
2024/02/15 00:42:57;;;;;;;;;9.00;7.25;;;;;14.41;79.04;101199.25;5039154;28;56438;-68
2024/02/15 00:45:22;;;;;;;;;10.75;8.75;;;;;14.41;78.95;101193.09;5039457;28;69296;-66
2024/02/15 00:47:48;;;;;;;;;13.50;8.50;;;;;14.40;78.74;101189.63;5039992;28;73378;-66
2024/02/15 00:50:13;;;;;;;;;46.25;32.75;;;;;14.39;78.78;101187.03;5071267;27;46012;-67
2024/02/15 00:52:38;;;;;;;;;64.00;49.00;;;;;14.38;78.93;101185.34;5036086;28;68584;-67
2024/02/15 00:55:04;;;;;;;;;12.25;8.75;;;;;14.36;78.58;101182.75;5038129;28;45590;-68
2024/02/15 00:57:29;;;;;;;;;11.00;7.00;;;;;14.31;78.83;101170.66;5041891;28;45513;-66
2024/02/15 00:59:55;;;;;;;;;6.75;6.75;;;;;14.33;78.67;101180.22;5037801;28;67928;-67
2024/02/15 01:02:21;;;;;;;;;11.00;7.00;;;;;14.33;79.04;101172.31;5036132;28;45485;-67
2024/02/15 01:04:47;;;;;;;;;15.00;7.00;;;;;14.30;79.06;101163.66;5039831;28;45537;-67
2024/02/15 01:07:12;;;;;;;;;12.00;7.00;;;;;14.29;78.76;101164.56;5041719;28;45538;-67
2024/02/15 01:09:37;;;;;;;;;6.50;6.25;;;;;14.28;78.84;101170.78;5036056;28;70930;-66
2024/02/15 01:12:03;;;;;;;;;7.75;7.00;;;;;14.27;78.79;101166.41;5037127;28;69668;-67
2024/02/15 01:14:30;;;;;;;;;7.50;4.00;;;;;14.28;78.91;101169.00;5046516;28;45371;-67
2024/02/15 01:16:56;;;;;;;;;9.25;6.50;;;;;14.28;78.85;101155.81;5044389;27;45683;-67
2024/02/15 01:19:21;;;;;;;;;6.00;5.50;;;;;14.29;78.37;101154.03;5043486;28;46038;-67
2024/02/15 01:21:46;;;;;;;;;7.50;6.00;;;;;14.27;78.23;101150.59;5040468;28;69111;-67
2024/02/15 01:24:11;;;;;;;;;10.00;7.50;;;;;14.27;78.43;101147.97;5042470;28;69252;-67
2024/02/15 01:26:37;;;;;;;;;8.25;6.25;;;;;14.27;78.22;101153.25;5046889;28;72879;-67
2024/02/15 01:29:03;;;;;;;;;5.50;5.00;;;;;14.26;78.77;101149.75;5040605;28;75598;-67
2024/02/15 01:31:28;;;;;;;;;12.00;6.75;;;;;14.26;78.33;101151.53;5040689;28;47325;-67
2024/02/15 01:33:53;;;;;;;;;6.00;6.00;;;;;14.27;78.23;101153.25;5042643;28;45470;-66
2024/02/15 01:36:19;;;;;;;;;8.75;5.75;;;;;14.27;77.94;101153.25;5057847;28;73250;-67
2024/02/15 01:38:44;;;;;;;;;5.50;4.25;;;;;14.27;78.31;101147.97;5038956;28;72470;-67
2024/02/15 01:41:10;;;;;;;;;6.00;5.00;;;;;14.24;78.37;101143.69;5047779;28;45430;-67
2024/02/15 01:43:35;;;;;;;;;6.50;5.00;;;;;14.24;78.04;101146.31;5042533;28;45307;-67
2024/02/15 01:46:07;;;;;;;;;7.25;7.00;;;;;14.22;77.93;101142.91;5040663;28;45280;-66
2024/02/15 01:48:32;;;;;;;;;6.00;5.00;;;;;14.22;77.92;101142.91;5039683;28;46371;-67
2024/02/15 01:50:58;;;;;;;;;9.25;4.50;;;;;14.21;78.08;101149.91;5047540;28;45349;-66
2024/02/15 01:53:24;;;;;;;;;6.75;4.75;;;;;14.20;77.79;101148.22;5040350;28;53513;-67
2024/02/15 01:55:52;;;;;;;;;6.25;5.00;;;;;14.19;77.94;101146.47;5039646;28;45592;-67
2024/02/15 01:58:18;;;;;;;;;5.50;5.50;;;;;14.18;77.63;101143.91;5073427;27;46586;-66
2024/02/15 02:00:43;;;;;;;;;5.00;4.25;;;;;14.18;77.39;101142.16;5076232;27;46005;-67
2024/02/15 02:03:10;;;;;;;;;7.25;5.00;;;;;14.16;77.27;101143.94;5040502;28;65129;-66
2024/02/15 02:05:36;;;;;;;;;7.00;5.00;;;;;14.15;77.45;101144.03;5044046;28;73184;-66
2024/02/15 02:08:04;;;;;;;;;5.00;4.25;;;;;14.15;77.47;101138.75;5040902;28;69847;-67
2024/02/15 02:10:32;;;;;;;;;8.00;5.00;;;;;14.11;77.67;101140.66;5052252;28;45761;-67
2024/02/15 02:12:59;;;;;;;;;6.00;5.00;;;;;14.13;77.66;101143.19;5040803;28;45356;-67
2024/02/15 02:15:24;;;;;;;;;4.25;4.00;;;;;14.09;77.23;101138.97;5046194;28;45537;-68
2024/02/15 02:17:51;;;;;;;;;58.75;45.50;;;;;14.08;77.22;101135.47;5043634;28;71329;-67
2024/02/15 02:20:16;;;;;;;;;24.25;18.50;;;;;14.08;77.07;101134.59;5033095;28;45508;-67
2024/02/15 02:22:45;;;;;;;;;13.75;8.50;;;;;14.07;77.20;101131.13;5040398;28;45327;-67
2024/02/15 02:25:12;;;;;;;;;6.25;5.50;;;;;14.06;77.31;101126.78;5041686;28;45621;-68
2024/02/15 02:27:38;;;;;;;;;6.50;5.00;;;;;14.04;77.14;101116.31;5069886;27;46492;-67
2024/02/15 02:30:18;;;;;;;;;7.75;5.75;;;;;14.04;77.71;101118.94;5042177;28;45452;-67
2024/02/15 02:32:44;;;;;;;;;7.00;5.00;;;;;14.02;77.21;101112.88;5037138;28;45286;-67
2024/02/15 02:35:13;;;;;;;;;4.50;4.50;;;;;14.02;77.15;101106.72;5077239;27;45795;-67
2024/02/15 02:37:39;;;;;;;;;6.25;4.00;;;;;14.00;77.28;101100.66;5039669;28;46415;-66
2024/02/15 02:40:08;;;;;;;;;4.00;4.00;;;;;14.01;77.02;101103.25;5040053;28;45514;-66
2024/02/15 02:42:33;;;;;;;;;5.00;4.00;;;;;14.01;77.08;101097.13;5043834;28;45319;-68
2024/02/15 02:44:59;;;;;;;;;5.50;3.00;;;;;13.99;76.73;101101.59;5037460;28;71746;-66
2024/02/15 02:47:24;;;;;;;;;5.00;4.00;;;;;13.98;77.12;101087.56;5040912;28;46381;-66
2024/02/15 02:49:49;;;;;;;;;4.00;4.00;;;;;13.98;76.97;101089.34;5041605;28;64480;-67
2024/02/15 02:52:15;;;;;;;;;5.25;4.75;;;;;13.96;76.83;101091.19;5037996;28;64797;-66
2024/02/15 02:54:41;;;;;;;;;7.00;3.75;;;;;13.94;76.63;101082.47;5038954;28;72078;-67
2024/02/15 02:57:06;;;;;;;;;5.75;4.00;;;;;13.90;76.44;101079.09;5038525;28;46205;-67
2024/02/15 02:59:34;;;;;;;;;4.50;3.75;;;;;13.87;77.07;101079.22;5039576;28;45382;-67
2024/02/15 03:01:59;;;;;;;;;6.50;4.75;;;;;13.87;76.46;101073.94;5044187;28;45309;-66
2024/02/15 03:04:24;;;;;;;;;5.00;4.00;;;;;13.86;76.45;101073.09;5037633;28;71868;-66
2024/02/15 03:06:51;;;;;;;;;5.00;4.25;;;;;13.85;76.62;101066.09;5040111;28;68345;-66
2024/02/15 03:09:16;;;;;;;;;6.00;3.00;;;;;13.84;76.86;101066.16;5039709;28;45595;-69
2024/02/15 03:11:42;;;;;;;;;4.00;4.00;;;;;13.81;76.64;101064.50;5054816;28;45293;-66
2024/02/15 03:14:07;;;;;;;;;85.00;66.25;;;;;13.82;76.85;101071.47;5039027;28;45419;-67
2024/02/15 03:16:33;;;;;;;;;61.50;44.75;;;;;13.81;76.81;101068.88;5042164;28;46128;-67
2024/02/15 03:19:01;;;;;;;;;6.75;6.00;;;;;13.81;76.89;101061.88;5042709;28;45392;-66
2024/02/15 03:21:27;;;;;;;;;9.00;5.00;;;;;13.80;76.75;101068.03;5038896;28;45443;-66
2024/02/15 03:23:52;;;;;;;;;4.00;4.00;;;;;13.79;76.64;101061.06;5041766;28;45406;-66
2024/02/15 03:26:29;;;;;;;;;3.75;2.25;;;;;13.77;76.44;101056.75;5040693;28;75689;-66
2024/02/15 03:28:54;;;;;;;;;3.00;3.00;;;;;13.77;77.03;101057.59;5045337;28;45866;-66
2024/02/15 03:31:20;;;;;;;;;47.25;36.00;;;;;13.74;76.80;101049.84;5037773;28;45589;-66
2024/02/15 03:33:45;;;;;;;;;70.00;53.00;;;;;13.75;76.82;101048.06;5038978;28;45315;-67
2024/02/15 03:36:11;;;;;;;;;17.25;14.00;;;;;13.75;76.92;101046.28;5037919;28;73744;-67
2024/02/15 03:38:37;;;;;;;;;5.00;5.00;;;;;13.76;77.05;101050.66;5038713;28;45764;-67
2024/02/15 03:41:02;;;;;;;;;5.25;4.50;;;;;13.76;77.03;101055.06;5039408;27;45266;-67
2024/02/15 03:43:27;;;;;;;;;5.25;5.00;;;;;13.75;76.99;101058.59;5037926;28;45426;-67
2024/02/15 03:45:53;;;;;;;;;5.75;4.00;;;;;13.74;76.80;101054.22;5040476;28;72657;-67
2024/02/15 03:48:18;;;;;;;;;4.50;4.50;;;;;13.73;76.78;101048.13;5044928;28;45266;-67
2024/02/15 03:50:43;;;;;;;;;7.25;4.75;;;;;13.72;76.52;101043.75;5037948;28;45285;-67
2024/02/15 03:53:11;;;;;;;;;5.00;5.00;;;;;13.71;76.75;101038.56;5038120;28;66485;-67
2024/02/15 03:55:36;;;;;;;;;6.25;5.00;;;;;13.68;76.96;101032.47;5034546;28;45925;-67
2024/02/15 03:58:01;;;;;;;;;47.75;35.25;;;;;13.66;77.21;101034.31;5075252;27;45471;-67
2024/02/15 04:00:27;;;;;;;;;25.75;20.25;;;;;13.63;76.93;101028.31;5038505;28;45438;-67
2024/02/15 04:02:52;;;;;;;;;8.75;5.25;;;;;13.61;76.86;101030.13;5049181;28;57538;-66
2024/02/15 04:05:18;;;;;;;;;5.50;5.00;;;;;13.59;77.21;101032.81;5036275;28;65613;-66
2024/02/15 04:07:44;;;;;;;;;7.00;5.00;;;;;13.59;77.30;101029.34;5039324;28;45299;-66
2024/02/15 04:10:10;;;;;;;;;6.00;4.00;;;;;13.57;77.02;101028.53;5037346;28;45309;-67
2024/02/15 04:12:36;;;;;;;;;5.00;4.50;;;;;13.57;77.35;101034.66;5037746;28;67860;-67
2024/02/15 04:15:09;;;;;;;;;4.50;4.00;;;;;13.55;77.03;101022.47;5041381;28;46188;-66
2024/02/15 04:17:36;;;;;;;;;5.00;1.25;;;;;13.56;77.18;101021.53;5040544;28;45334;-68
2024/02/15 04:20:04;;;;;;;;;6.75;1.50;;;;;13.54;77.01;101026.84;5038750;28;45977;-66
2024/02/15 04:22:31;;;;;;;;;4.75;4.00;;;;;13.53;76.89;101025.16;5037303;28;46296;-67
2024/02/15 04:24:56;;;;;;;;;6.00;4.00;;;;;13.52;76.95;101025.19;5046660;28;47017;-68
2024/02/15 04:27:22;;;;;;;;;3.75;3.25;;;;;13.50;76.90;101027.88;5038720;28;45494;-66
2024/02/15 04:29:47;;;;;;;;;6.00;3.50;;;;;13.50;76.83;101016.50;5035861;28;67591;-66
2024/02/15 04:32:13;;;;;;;;;3.50;3.50;;;;;13.51;77.15;101016.47;5040579;28;45502;-66
2024/02/15 04:34:39;;;;;;;;;51.25;39.50;;;;;13.50;76.98;101009.47;5040272;28;46233;-66
2024/02/15 04:37:07;;;;;;;;;28.00;26.50;;;;;13.54;77.37;101010.22;5042402;28;45609;-66
2024/02/15 04:39:36;;;;;;;;;7.75;6.00;;;;;13.55;76.78;101014.59;5038760;28;46839;-67
2024/02/15 04:42:11;;;;;;;;;6.00;6.00;;;;;13.54;76.84;101013.72;5037848;28;45531;-66
2024/02/15 04:44:37;;;;;;;;;4.00;4.00;;;;;13.53;77.22;101017.25;5038228;28;46514;-66
2024/02/15 04:47:03;;;;;;;;;5.00;5.00;;;;;13.48;76.98;101004.25;5040576;28;45984;-66
2024/02/15 04:49:29;;;;;;;;;5.75;2.75;;;;;13.54;76.92;101003.19;5043163;28;45488;-66
2024/02/15 04:51:55;;;;;;;;;7.25;3.00;;;;;13.56;76.94;100997.88;5036303;28;45400;-66
2024/02/15 04:54:20;;;;;;;;;6.00;3.50;;;;;13.54;76.89;101004.97;5041723;28;46003;-67
2024/02/15 04:56:45;;;;;;;;;5.75;4.00;;;;;13.55;77.09;100999.66;5037640;28;45611;-65
2024/02/15 04:59:24;;;;;;;;;65.25;51.00;;;;;13.55;76.74;100994.41;5049169;28;45233;-66
2024/02/15 05:01:49;;;;;;;;;61.50;48.75;;;;;13.54;77.00;100997.94;5044407;28;45438;-67
2024/02/15 05:04:15;;;;;;;;;18.75;15.50;;;;;13.53;76.90;100993.59;5038673;28;75530;-66
2024/02/15 05:06:40;;;;;;;;;5.75;5.75;;;;;13.54;76.82;100991.81;5040973;28;45611;-66
2024/02/15 05:09:10;;;;;;;;;5.00;4.00;;;;;13.51;76.90;100989.28;5043598;28;45485;-66
2024/02/15 05:11:38;;;;;;;;;8.75;5.50;;;;;13.53;76.79;100983.09;5039532;28;45416;-66
2024/02/15 05:14:06;;;;;;;;;6.25;3.75;;;;;13.53;76.82;100985.72;5041097;28;46212;-66
2024/02/15 05:16:32;;;;;;;;;6.00;4.25;;;;;13.52;76.68;100986.63;5045468;28;46356;-66
2024/02/15 05:18:57;;;;;;;;;6.25;5.00;;;;;13.48;76.86;100977.97;5042663;28;46702;-67
2024/02/15 05:21:22;;;;;;;;;3.50;2.00;;;;;13.50;76.60;100979.72;5043771;28;50619;-66
2024/02/15 05:23:48;;;;;;;;;7.00;4.25;;;;;13.50;76.70;100977.06;5038311;28;75300;-66
2024/02/15 05:26:16;;;;;;;;;7.25;5.00;;;;;13.50;76.61;100977.94;5046408;28;45686;-67
2024/02/15 05:28:41;;;;;;;;;5.75;4.00;;;;;13.48;76.69;100975.34;5042086;28;45445;-66
2024/02/15 05:31:34;;;;;;;;;6.00;5.25;;;;;13.50;76.60;100979.72;5045922;28;45732;-66
2024/02/15 05:34:00;;;;;;;;;4.00;4.00;;;;;13.48;76.55;100979.75;5040408;28;45328;-66
2024/02/15 05:36:25;;;;;;;;;7.00;5.00;;;;;13.52;76.52;100983.13;5042148;28;45362;-66
2024/02/15 05:38:54;;;;;;;;;6.00;5.00;;;;;13.52;76.57;100976.09;5041503;28;66678;-67
2024/02/15 05:41:24;;;;;;;;;7.50;6.00;;;;;13.55;76.46;100975.16;5072963;27;45293;-67
2024/02/15 05:43:52;;;;;;;;;5.75;5.25;;;;;13.54;76.26;100976.91;5039800;28;46332;-66
2024/02/15 05:46:17;;;;;;;;;4.75;4.75;;;;;13.52;76.45;100976.09;5042966;28;45434;-66
2024/02/15 05:48:42;;;;;;;;;5.00;4.00;;;;;13.47;76.44;100973.66;5041763;28;45344;-66
2024/02/15 05:51:08;;;;;;;;;5.25;5.25;;;;;13.48;76.31;100977.97;5043836;28;45363;-67
2024/02/15 05:53:37;;;;;;;;;6.00;4.75;;;;;13.44;76.45;100976.38;5040421;28;46572;-66
2024/02/15 05:56:04;;;;;;;;;5.00;3.50;;;;;13.42;76.69;100972.06;5038046;28;45331;-67
2024/02/15 05:58:30;;;;;;;;;5.00;3.25;;;;;13.40;76.50;100974.78;5040068;28;45442;-67
2024/02/15 06:01:01;;;;;;;;;4.00;4.00;;;;;13.37;76.33;100972.25;5041225;28;45705;-66
2024/02/15 06:03:26;;;;;;;;;5.00;4.25;;;;;13.34;76.46;100972.34;5042091;28;46578;-66
2024/02/15 06:05:57;;;;;;;;;5.00;4.00;;;;;13.32;76.87;100970.69;5077105;27;45462;-66
2024/02/15 06:08:23;;;;;;;;;5.50;5.00;;;;;13.31;77.08;100969.81;5038323;28;45492;-66
2024/02/15 06:10:48;;;;;;;;;66.25;48.50;;;;;13.32;76.78;100968.91;5040792;28;47195;-67
2024/02/15 06:13:14;;;;;;;;;133.75;109.25;;;;;13.29;77.13;100971.59;5039256;28;45996;-67
2024/02/15 06:15:39;;;;;;;;;9.00;9.00;;;;;13.28;77.12;100973.38;5044285;28;45420;-67
2024/02/15 06:18:10;;;;;;;;;14.25;11.00;;;;;13.25;76.93;100962.13;5044925;28;45991;-66
2024/02/15 06:20:35;;;;;;;;;5.50;5.00;;;;;13.22;77.16;100962.22;5041149;28;47077;-67
2024/02/15 06:23:01;;;;;;;;;8.75;6.00;;;;;13.20;76.92;100956.16;5046899;28;64196;-67
2024/02/15 06:25:27;;;;;;;;;6.25;4.50;;;;;13.14;77.08;100949.34;5056472;28;45318;-66
2024/02/15 06:27:58;;;;;;;;;8.00;5.00;;;;;13.10;77.23;100940.72;5040792;28;46544;-66
2024/02/15 06:41:21;;;;;;;;;146.00;127.25;;;;;13.00;77.76;100948.97;5040420;28;45407;-67
2024/02/15 06:43:46;;;;;;;;;11.00;9.00;;;;;13.00;77.29;100951.59;5039931;28;56890;-66
2024/02/15 06:46:13;;;;;;;;;5.25;5.00;;;;;12.98;77.63;100949.00;5039744;28;45907;-67
2024/02/15 06:48:44;;;;;;;;;7.00;5.00;;;;;12.98;77.29;100942.88;5050977;28;45444;-66
2024/02/15 06:51:15;;;;;;;;;4.00;4.00;;;;;12.95;77.80;100943.84;5045478;28;45311;-75
2024/02/15 06:53:40;;;;;;;;;7.00;4.50;;;;;12.93;77.31;100944.84;5039400;28;47106;-69
2024/02/15 06:56:08;;;;;;;;;5.75;5.75;;;;;12.91;77.42;100947.50;5041218;28;45538;-70
2024/02/15 06:58:34;;;;;;;;;8.00;5.00;;;;;12.88;77.83;100950.22;5042746;28;45463;-74
2024/02/15 07:00:59;;;;;;;;;5.50;4.00;;;;;12.88;77.80;100950.22;5039684;28;45280;-77
2024/02/15 07:03:25;;;;;;;;;5.75;5.00;;;;;12.87;77.75;100953.75;5038884;28;70188;-77
2024/02/15 07:05:50;;;;;;;;;48.50;37.50;;;;;12.85;77.80;100947.69;5040485;28;45246;-76
2024/02/15 07:08:15;;;;;;;;;70.50;53.75;;;;;12.85;77.97;100931.94;5040640;28;45516;-76
2024/02/15 07:10:41;;;;;;;;;9.00;8.00;;;;;12.83;77.89;100929.34;5040126;28;45349;-74
2024/02/15 07:13:06;;;;;;;;;8.00;8.00;;;;;12.84;77.99;100935.50;5029332;28;45585;-77
2024/02/15 07:15:37;;;;;;;;;7.00;5.00;;;;;12.81;77.73;100915.41;5045524;28;45377;-78
2024/02/15 07:18:05;;;;;;;;;7.00;5.00;;;;;12.79;77.69;100911.16;5045081;28;45306;-77
2024/02/15 07:20:31;;;;;;;;;7.50;5.00;;;;;12.77;78.09;100905.09;5048407;28;45446;-73
2024/02/15 07:22:58;;;;;;;;;5.75;3.00;;;;;12.76;77.80;100924.38;5037624;28;46055;-72
2024/02/15 07:25:23;;;;;;;;;3.75;3.00;;;;;12.75;78.20;100912.13;5054898;28;45478;-70
2024/02/15 07:27:48;;;;;;;;;6.25;5.50;;;;;12.72;77.88;100913.97;5038887;28;69430;-71
2024/02/15 07:30:14;;;;;;;;;6.00;5.00;;;;;12.71;77.93;100919.25;5037307;28;71765;-71
2024/02/15 07:32:40;;;;;;;;;6.75;5.25;;;;;12.71;78.03;100927.13;5037558;28;45448;-71
2024/02/15 07:35:07;;;;;;;;;4.50;4.50;;;;;12.72;78.30;100920.97;5038763;28;45399;-72
2024/02/15 07:37:33;;;;;;;;;6.00;5.50;;;;;12.73;78.35;100922.72;5040791;28;45361;-71
2024/02/15 07:39:59;;;;;;;;;5.75;5.00;;;;;12.75;77.76;100927.88;5049152;28;46476;-64
2024/02/15 07:42:25;;;;;;;;;5.75;4.00;;;;;12.77;78.04;100926.94;5045060;28;47091;-71
2024/02/15 07:44:52;;;;;;;;;5.25;4.50;;;;;12.78;77.73;100935.69;5043736;28;46208;-66
2024/02/15 07:47:20;;;;;;;;;7.75;6.00;;;;;12.83;78.08;100926.72;5055265;28;44763;-80
2024/02/15 07:49:46;;;;;;;;;7.75;5.75;;;;;12.87;77.36;100931.00;5056248;28;45512;-75
2024/02/15 07:52:11;;;;;;;;;4.00;3.00;;;;;12.91;77.76;100924.72;5051466;28;46073;-71
2024/02/15 07:54:36;;;;;;;;;7.00;6.00;;;;;12.91;77.57;100915.97;5050480;28;65671;-71
2024/02/15 07:57:03;;;;;;;;;10.00;6.00;;;;;12.93;77.33;100915.94;5044960;28;59284;-74
2024/02/15 07:59:29;;;;;;;;;9.50;7.00;;;;;12.93;77.24;100898.41;5071649;27;45553;-76
2024/02/15 08:01:54;;;;;;;;;7.00;5.00;;;;;12.94;77.15;100902.72;5037628;28;62633;-70
2024/02/15 08:04:20;;;;;;;;;8.00;6.00;;;;;12.95;77.16;100900.97;5038092;28;45382;-74
2024/02/15 08:06:48;;;;;;;;;7.00;7.00;;;;;12.95;77.47;100898.34;5039620;28;45527;-69
2024/02/15 08:09:14;;;;;;;;;6.75;6.50;;;;;12.96;76.95;100906.19;5063936;27;45398;-69
2024/02/15 08:11:40;;;;;;;;;6.00;5.50;;;;;12.97;77.09;100896.53;5038142;28;46682;-73
2024/02/15 08:14:08;;;;;;;;;7.25;5.00;;;;;12.99;76.85;100892.06;5040576;28;45190;-74
2024/02/15 08:16:34;;;;;;;;;92.25;78.25;;;;;13.01;77.52;100901.59;5042764;28;45307;-75
2024/02/15 08:19:01;;;;;;;;;8.50;8.00;;;;;13.01;77.22;100885.84;5038921;28;45549;-74
2024/02/15 08:21:32;;;;;;;;;7.00;7.00;;;;;13.04;76.90;100888.38;5038732;28;45510;-75
2024/02/15 08:24:01;;;;;;;;;8.00;5.00;;;;;13.06;76.57;100883.06;5074235;27;45242;-74
2024/02/15 08:26:26;;;;;;;;;6.25;6.00;;;;;13.06;76.44;100869.94;5038669;28;45357;-83
2024/02/15 08:28:52;;;;;;;;;8.00;7.00;;;;;13.07;76.73;100858.53;5040254;28;73066;-75
2024/02/15 08:31:19;;;;;;;;;7.00;5.25;;;;;13.08;76.45;100858.47;5043855;28;47020;-74
2024/02/15 08:33:45;;;;;;;;;9.25;7.50;;;;;13.10;76.34;100848.75;5074805;27;45910;-74
2024/02/15 08:36:11;;;;;;;;;8.75;7.00;;;;;13.14;76.37;100853.88;5047447;28;45500;-75
2024/02/15 08:38:37;;;;;;;;;7.75;7.00;;;;;13.17;76.02;100846.75;5042775;28;45352;-76
2024/02/15 08:41:07;;;;;;;;;8.00;7.25;;;;;13.18;75.77;100840.59;5039638;28;74510;-76
2024/02/15 08:43:32;;;;;;;;;8.50;7.25;;;;;13.20;75.74;100851.91;5044834;28;45386;-75
2024/02/15 08:45:58;;;;;;;;;9.75;8.75;;;;;13.21;76.23;100851.00;5045876;28;45390;-76
2024/02/15 08:48:23;;;;;;;;;11.00;8.00;;;;;13.25;75.81;100857.00;5044298;28;45371;-75
2024/02/15 08:50:48;;;;;;;;;8.25;7.25;;;;;13.24;75.83;100840.38;5042940;28;45436;-75
2024/02/15 08:53:15;;;;;;;;;10.00;7.00;;;;;13.26;75.44;100829.78;5046812;28;54636;-75
2024/02/15 08:55:40;;;;;;;;;7.00;7.00;;;;;13.27;75.48;100832.38;5054420;28;45443;-75
2024/02/15 08:58:06;;;;;;;;;7.75;6.50;;;;;13.29;75.65;100833.16;5042611;28;45381;-74
2024/02/15 09:00:31;;;;;;;;;7.00;7.00;;;;;13.32;74.92;100808.59;5042328;28;45907;-75
2024/02/15 09:02:57;;;;;;;;;10.50;8.00;;;;;13.35;75.33;100797.97;5044284;28;66110;-76
2024/02/15 09:05:22;;;;;;;;;9.00;8.00;;;;;13.35;75.03;100795.34;5043979;28;45457;-78
2024/02/15 09:07:48;;;;;;;;;7.00;7.00;;;;;13.39;75.01;100802.19;5042393;28;45162;-76
2024/02/15 09:10:16;;;;;;;;;11.25;7.50;;;;;13.38;74.63;100795.19;5032413;28;46142;-75
2024/02/15 09:12:42;;;;;;;;;8.25;6.50;;;;;13.42;74.89;100801.19;5042338;28;45569;-75
2024/02/15 09:15:10;;;;;;;;;7.00;6.75;;;;;13.46;74.36;100802.81;5042384;28;45459;-76
2024/02/15 09:17:38;;;;;;;;;9.50;7.00;;;;;13.52;74.06;100799.94;5041048;28;45498;-76
2024/02/15 09:20:14;;;;;;;;;9.75;6.00;;;;;13.57;73.79;100802.41;5042298;28;45276;-75
2024/02/15 09:22:54;;;;;;;;;7.25;6.75;;;;;13.61;74.07;100804.84;5040998;28;45269;-76
2024/02/15 09:25:20;;;;;;;;;8.00;6.50;;;;;13.67;73.71;100795.88;5042210;28;45293;-77
2024/02/15 09:27:48;;;;;;;;;7.50;6.00;;;;;13.74;73.77;100799.09;5042003;28;45380;-76
2024/02/15 09:30:13;;;;;;;;;9.00;7.00;;;;;13.82;73.55;100803.16;5041779;28;45840;-76
2024/02/15 09:32:39;;;;;;;;;12.75;8.00;;;;;13.91;73.55;100796.66;5042019;28;45476;-75
2024/02/15 09:35:09;;;;;;;;;8.00;7.25;;;;;14.00;73.07;100785.75;5041552;28;45533;-76
2024/02/15 09:37:46;;;;;;;;;10.00;7.00;;;;;14.13;72.91;100785.25;5047422;28;45422;-77
2024/02/15 09:40:15;;;;;;;;;8.00;6.25;;;;;14.23;72.26;100786.59;5046533;28;47162;-75
2024/02/15 09:42:40;;;;;;;;;8.00;7.00;;;;;14.32;71.86;100785.38;5042530;28;45208;-75
2024/02/15 09:45:12;;;;;;;;;12.25;7.50;;;;;14.43;71.75;100785.78;5042247;28;45548;-75
2024/02/15 09:47:40;;;;;;;;;8.25;6.50;;;;;14.54;71.09;100785.34;5042363;28;45492;-75
2024/02/15 09:50:06;;;;;;;;;7.25;7.25;;;;;14.64;70.94;100780.53;5042006;28;46939;-76
2024/02/15 09:52:35;;;;;;;;;8.00;6.75;;;;;14.74;70.39;100780.06;5042071;28;45327;-75
2024/02/15 09:55:02;;;;;;;;;6.00;5.00;;;;;14.85;69.65;100781.38;5056281;28;45347;-75
2024/02/15 09:57:31;;;;;;;;;9.50;7.00;;;;;14.92;69.89;100780.19;5042947;28;45639;-76
2024/02/15 09:59:57;;;;;;;;;8.00;8.00;;;;;14.98;69.32;100778.16;5041698;28;45427;-77
2024/02/15 10:02:23;;;;;;;;;8.25;7.00;;;;;15.02;69.20;100778.88;5041384;28;45331;-76
2024/02/15 10:04:50;;;;;;;;;7.25;6.75;;;;;15.08;69.06;100773.31;5041777;28;45389;-76
2024/02/15 10:07:15;;;;;;;;;8.75;6.25;;;;;15.18;68.84;100776.41;5041047;28;45635;-75
2024/02/15 10:09:42;;;;;;;;;8.00;6.75;;;;;15.28;68.44;100775.06;5039969;28;75855;-75
2024/02/15 10:12:09;;;;;;;;;8.25;6.00;;;;;15.35;67.84;100773.84;5042001;28;45758;-73
2024/02/15 10:14:34;;;;;;;;;8.00;6.00;;;;;15.45;67.72;100771.63;5043533;28;45198;-74
2024/02/15 10:17:09;;;;;;;;;8.00;7.00;;;;;15.55;67.66;100767.63;5041357;28;45583;-75
2024/02/15 10:19:34;;;;;;;;;9.75;7.25;;;;;15.64;67.11;100768.97;5036223;28;46270;-75
2024/02/15 10:22:06;;;;;;;;;5.50;5.50;;;;;15.71;66.75;100751.91;5040993;28;62292;-75
2024/02/15 10:24:32;;;;;;;;;6.25;5.75;;;;;15.80;66.50;100749.81;5036430;28;45359;-76
2024/02/15 10:27:04;;;;;;;;;5.00;5.00;;;;;15.90;66.42;100746.66;5041715;28;73011;-74
2024/02/15 10:29:33;;;;;;;;;7.00;5.00;;;;;16.01;65.82;100737.34;5047867;28;46018;-75
2024/02/15 10:32:00;;;;;;;;;9.75;5.50;;;;;16.13;65.72;100736.72;5039600;28;45372;-75
2024/02/15 10:34:30;;;;;;;;;6.75;6.75;;;;;16.26;65.29;100726.41;5042047;27;45355;-75
2024/02/15 10:36:58;;;;;;;;;7.25;5.00;;;;;16.40;64.96;100726.53;5039619;28;45534;-74
2024/02/15 10:39:24;;;;;;;;;7.00;5.75;;;;;16.56;64.83;100723.13;5040964;28;46515;-74
2024/02/15 10:41:54;;;;;;;;;9.25;6.00;;;;;16.65;63.91;100727.91;5040811;28;45303;-75
2024/02/15 10:44:24;;;;;;;;;7.00;7.00;;;;;16.73;63.61;100720.41;5073372;28;45347;-75
2024/02/15 10:46:51;;;;;;;;;7.00;4.50;;;;;16.85;63.66;100716.31;5041426;28;45368;-74
2024/02/15 10:49:24;;;;;;;;;6.25;4.50;;;;;16.94;63.52;100714.97;5039496;28;45434;-74
2024/02/15 10:51:55;;;;;;;;;9.25;4.75;;;;;16.97;62.97;100705.06;5039286;28;45736;-74
2024/02/15 10:54:34;;;;;;;;;6.75;6.25;;;;;17.02;62.72;100705.69;5037989;28;45393;-76
2024/02/15 10:57:05;;;;;;;;;9.25;5.00;;;;;17.06;62.63;100696.63;5052156;28;45310;-75
2024/02/15 10:59:34;;;;;;;;;9.00;6.00;;;;;17.07;62.50;100693.06;5044877;28;46143;-75
2024/02/15 11:01:59;;;;;;;;;7.25;5.75;;;;;17.11;62.30;100687.63;5042211;28;45482;-75
2024/02/15 11:04:31;;;;;;;;;6.75;4.75;;;;;17.10;62.42;100681.47;5041358;28;45481;-76
2024/02/15 11:06:57;;;;;;;;;5.50;4.50;;;;;17.14;62.18;100677.72;5023531;28;45274;-75
2024/02/15 11:09:23;;;;;;;;;5.50;4.50;;;;;17.19;61.81;100672.16;5039295;28;75622;-76
2024/02/15 11:11:51;;;;;;;;;6.75;5.75;;;;;17.23;61.48;100665.78;5041074;28;45715;-76
2024/02/15 11:14:27;;;;;;;;;7.75;6.75;;;;;17.31;61.47;100660.91;5040698;28;45453;-75
2024/02/15 11:16:52;;;;;;;;;8.00;5.00;;;;;17.33;61.52;100655.53;5040254;28;45668;-76
2024/02/15 11:19:35;;;;;;;;;6.50;5.00;;;;;17.37;61.17;100657.03;5046180;28;46144;-76
2024/02/15 11:22:04;;;;;;;;;7.50;6.75;;;;;17.34;61.11;100650.16;5070049;28;45754;-76
2024/02/15 11:24:37;;;;;;;;;6.00;5.50;;;;;17.31;60.74;100652.97;5040322;28;45335;-76
2024/02/15 11:27:04;;;;;;;;;10.75;7.25;;;;;17.30;61.06;100645.09;5040056;28;45429;-75
2024/02/15 11:29:51;;;;;;;;;7.50;5.00;;;;;17.32;61.19;100641.44;5040063;28;46231;-75
2024/02/15 11:32:47;;;;;;;;;9.25;7.00;;;;;17.37;60.60;100641.16;5039975;28;45694;-75